Time;durP1;ratioP1;P1;durP2;ratioP2;P2;SDS_P1;SDS_P2;PMS_P1;PMS_P2;Temp;Humidity;BMP_temperature;BMP_pressure;BME280_temperature;BME280_humidity;BME280_pressure;Samples;Min_cycle;Max_cycle;Signal;HPM_P1;HPM_P2
2024/01/30 00:01:12;;;;;;;6.60;5.93;;;4.60;99.90;;;;;;5017595;28;20205;-87
2024/01/30 00:03:38;;;;;;;7.67;6.00;;;5.10;99.90;;;;;;4997530;28;20179;-86
2024/01/30 00:06:04;;;;;;;7.97;6.07;;;4.60;99.90;;;;;;5017662;28;20231;-87
2024/01/30 00:08:29;;;;;;;6.93;5.73;;;5.10;99.90;;;;;;4999861;28;20289;-86
2024/01/30 00:10:55;;;;;;;7.70;5.67;;;;;;;;;;5001859;28;20198;-85
2024/01/30 00:13:21;;;;;;;6.93;5.30;;;4.70;99.90;;;;;;5013790;28;20192;-85
2024/01/30 00:15:46;;;;;;;8.47;6.20;;;4.50;99.90;;;;;;5002417;28;21004;-85
2024/01/30 00:18:12;;;;;;;8.13;6.37;;;4.50;99.90;;;;;;5005027;28;20257;-85
2024/01/30 00:20:38;;;;;;;7.00;5.90;;;;;;;;;;5032944;28;20275;-85
2024/01/30 00:23:04;;;;;;;7.53;5.43;;;4.30;99.90;;;;;;5024791;28;20200;-86
2024/01/30 00:25:30;;;;;;;6.20;5.32;;;4.20;99.90;;;;;;4999120;28;20469;-86
2024/01/30 00:27:55;;;;;;;7.27;6.00;;;4.20;99.90;;;;;;5015558;28;20194;-85
2024/01/30 00:30:21;;;;;;;7.67;6.10;;;4.10;99.90;;;;;;5001624;28;20194;-86
2024/01/30 00:32:47;;;;;;;8.77;6.03;;;4.30;99.90;;;;;;5000483;28;20181;-87
2024/01/30 00:35:12;;;;;;;5.87;5.33;;;4.50;99.90;;;;;;5015691;28;20559;-86
2024/01/30 00:37:38;;;;;;;7.27;5.23;;;4.70;99.90;;;;;;5004669;28;20189;-86
2024/01/30 00:40:05;;;;;;;6.60;5.90;;;4.20;99.90;;;;;;5001401;28;20197;-86
2024/01/30 00:42:31;;;;;;;5.60;5.00;;;4.30;99.90;;;;;;5018575;28;20300;-86
2024/01/30 00:44:57;;;;;;;7.13;6.20;;;4.50;99.90;;;;;;4999195;28;20232;-85
2024/01/30 00:47:23;;;;;;;6.13;5.53;;;4.20;99.90;;;;;;4998415;28;20186;-86
2024/01/30 00:49:49;;;;;;;6.70;5.10;;;4.20;99.90;;;;;;5002143;28;20192;-85
2024/01/30 00:52:15;;;;;;;6.85;6.13;;;3.60;99.90;;;;;;5018230;28;20705;-85
2024/01/30 00:54:41;;;;;;;12.70;5.93;;;4.20;99.90;;;;;;4997649;28;20282;-86
2024/01/30 00:57:07;;;;;;;5.83;5.23;;;4.80;99.90;;;;;;5014479;28;20195;-86
2024/01/30 00:59:32;;;;;;;6.28;5.30;;;5.00;99.90;;;;;;5014186;28;20613;-87
2024/01/30 01:01:58;;;;;;;7.63;6.00;;;5.00;99.90;;;;;;4986353;28;20217;-87
2024/01/30 01:04:23;;;;;;;6.37;5.50;;;4.60;99.90;;;;;;5000755;28;20685;-84
2024/01/30 01:06:49;;;;;;;7.50;5.87;;;4.60;99.90;;;;;;5000418;28;20643;-84
2024/01/30 01:09:15;;;;;;;6.93;5.55;;;4.50;99.90;;;;;;5002521;28;20187;-87
2024/01/30 01:11:40;;;;;;;6.90;6.00;;;4.60;99.90;;;;;;5005275;28;20630;-86
2024/01/30 01:14:06;;;;;;;8.03;5.60;;;4.40;99.90;;;;;;5003875;28;20289;-85
2024/01/30 01:16:31;;;;;;;6.20;5.60;;;4.30;99.90;;;;;;5005564;28;20292;-85
2024/01/30 01:18:57;;;;;;;7.17;6.40;;;4.50;99.90;;;;;;5003360;28;20190;-88
2024/01/30 01:21:23;;;;;;;6.20;5.60;;;4.50;99.90;;;;;;5003974;28;20233;-85
2024/01/30 01:23:48;;;;;;;5.80;5.03;;;4.70;99.90;;;;;;5021452;28;20181;-86
2024/01/30 01:26:14;;;;;;;6.10;5.60;;;4.90;99.90;;;;;;5015515;28;20211;-86
2024/01/30 01:28:41;;;;;;;6.40;5.50;;;4.30;99.90;;;;;;5009710;28;20205;-86
2024/01/30 01:31:06;;;;;;;7.97;6.53;;;4.50;99.90;;;;;;5015149;28;20252;-86
2024/01/30 01:33:33;;;;;;;6.70;6.00;;;;;;;;;;5014441;28;20197;-86
2024/01/30 01:35:59;;;;;;;6.47;5.70;;;4.50;99.90;;;;;;5026305;28;20496;-87
2024/01/30 01:38:24;;;;;;;7.10;6.40;;;4.50;99.90;;;;;;5005592;28;20193;-87
2024/01/30 01:40:51;;;;;;;8.40;6.33;;;4.50;99.90;;;;;;5009040;28;20221;-86
2024/01/30 01:43:16;;;;;;;8.25;6.07;;;4.50;99.90;;;;;;5004797;28;20197;-85
2024/01/30 01:45:42;;;;;;;5.50;5.00;;;4.30;99.90;;;;;;5004796;28;20210;-86
2024/01/30 01:48:09;;;;;;;7.80;6.60;;;4.00;99.90;;;;;;5002134;28;20209;-86
2024/01/30 01:50:35;;;;;;;6.28;5.47;;;4.60;99.90;;;;;;5007404;28;20201;-86
2024/01/30 01:53:02;;;;;;;5.30;4.80;;;4.20;99.90;;;;;;5004738;28;20242;-87
2024/01/30 01:55:30;;;;;;;6.55;5.47;;;4.20;99.90;;;;;;5004579;28;20233;-86
2024/01/30 01:57:55;;;;;;;7.82;5.85;;;5.60;99.90;;;;;;5003988;28;20212;-86
2024/01/30 02:00:21;;;;;;;6.30;5.47;;;4.10;99.90;;;;;;5003388;28;20189;-86
2024/01/30 02:02:47;;;;;;;7.80;5.73;;;3.70;99.90;;;;;;5007958;28;20488;-86
2024/01/30 02:05:13;;;;;;;7.03;5.53;;;4.00;99.90;;;;;;5007352;28;20213;-85
2024/01/30 02:07:38;;;;;;;6.83;5.43;;;4.20;99.90;;;;;;5006764;28;20185;-86
2024/01/30 02:10:04;;;;;;;7.33;5.60;;;4.10;99.90;;;;;;5001820;28;20471;-86
2024/01/30 02:12:30;;;;;;;6.17;5.57;;;4.10;99.90;;;;;;5005975;28;20192;-87
2024/01/30 02:14:55;;;;;;;5.80;5.30;;;4.00;99.90;;;;;;5009355;28;20567;-86
2024/01/30 02:17:23;;;;;;;6.43;5.83;;;4.60;99.90;;;;;;5021040;28;20197;-85
2024/01/30 02:19:48;;;;;;;5.75;5.00;;;3.50;99.90;;;;;;5003805;28;20181;-87
2024/01/30 02:22:14;;;;;;;6.43;5.83;;;4.20;99.90;;;;;;5004327;28;20217;-87
2024/01/30 02:24:40;;;;;;;6.82;5.32;;;4.00;99.90;;;;;;5017669;28;20465;-86
2024/01/30 02:27:06;;;;;;;7.47;6.33;;;4.50;99.90;;;;;;5000562;28;20279;-88
2024/01/30 02:29:31;;;;;;;6.40;5.80;;;4.50;99.90;;;;;;5000780;28;20181;-85
2024/01/30 02:31:57;;;;;;;5.97;5.37;;;4.20;99.90;;;;;;5017952;28;20731;-86
2024/01/30 02:34:23;;;;;;;7.93;5.80;;;4.10;99.90;;;;;;5003263;28;20241;-86
2024/01/30 02:36:48;;;;;;;6.95;5.32;;;4.30;99.90;;;;;;5004786;28;20189;-86
2024/01/30 02:39:14;;;;;;;7.40;5.03;;;3.90;99.90;;;;;;5020008;28;20216;-86
2024/01/30 02:41:40;;;;;;;5.33;4.83;;;4.10;99.90;;;;;;5005407;28;20212;-86
2024/01/30 02:44:05;;;;;;;6.13;5.53;;;4.40;99.90;;;;;;4989846;28;20467;-86
2024/01/30 02:46:31;;;;;;;5.90;5.30;;;3.60;99.90;;;;;;5004334;28;20247;-85
2024/01/30 02:48:56;;;;;;;5.87;5.37;;;4.30;99.90;;;;;;5005087;28;20212;-87
2024/01/30 02:51:22;;;;;;;6.33;5.60;;;4.20;99.90;;;;;;5003892;28;20240;-85
2024/01/30 02:53:48;;;;;;;6.47;5.10;;;3.80;99.90;;;;;;5020125;28;20210;-85
2024/01/30 02:56:13;;;;;;;6.10;5.47;;;4.00;99.90;;;;;;5007303;28;20628;-86
2024/01/30 02:58:40;;;;;;;5.93;5.33;;;4.70;99.90;;;;;;4999502;28;20344;-86
2024/01/30 03:01:06;;;;;;;6.72;6.05;;;3.90;99.90;;;;;;5017749;28;20476;-86
2024/01/30 03:03:34;;;;;;;6.20;5.53;;;;;;;;;;5001295;28;20331;-85
2024/01/30 03:05:59;;;;;;;5.80;4.90;;;4.10;99.90;;;;;;5018588;28;20208;-85
2024/01/30 03:08:25;;;;;;;6.10;5.50;;;4.20;99.90;;;;;;5007602;28;20185;-85
2024/01/30 03:10:50;;;;;;;6.33;5.73;;;4.00;99.90;;;;;;5000209;28;20183;-85
2024/01/30 03:13:16;;;;;;;5.77;5.17;;;4.40;99.90;;;;;;5003102;28;20228;-85
2024/01/30 03:15:41;;;;;;;6.03;5.43;;;3.70;99.90;;;;;;5001052;28;20605;-86
2024/01/30 03:18:07;;;;;;;6.00;5.40;;;4.00;99.90;;;;;;5002892;28;20202;-85
2024/01/30 03:20:33;;;;;;;5.20;4.73;;;3.90;99.90;;;;;;4998086;28;20266;-86
2024/01/30 03:23:00;;;;;;;6.10;5.50;;;3.50;99.90;;;;;;5004757;28;20190;-85
2024/01/30 03:25:25;;;;;;;7.30;5.47;;;3.20;99.90;;;;;;5001705;28;20702;-85
2024/01/30 03:27:51;;;;;;;8.83;5.70;;;3.90;99.90;;;;;;5020686;28;20231;-85
2024/01/30 03:30:17;;;;;;;5.47;4.97;;;4.30;99.90;;;;;;4999989;28;20541;-85
2024/01/30 03:32:42;;;;;;;7.73;5.50;;;3.80;99.90;;;;;;5000598;28;20186;-85
2024/01/30 03:35:08;;;;;;;5.70;5.17;;;3.90;99.90;;;;;;5017190;28;20468;-86
2024/01/30 03:37:34;;;;;;;6.37;5.53;;;3.90;99.90;;;;;;4998954;28;20184;-87
2024/01/30 03:39:59;;;;;;;6.90;5.70;;;4.20;99.90;;;;;;4998389;28;20454;-85
2024/01/30 03:42:25;;;;;;;6.90;5.47;;;3.60;99.90;;;;;;5016135;28;20218;-86
2024/01/30 03:44:54;;;;;;;6.50;5.90;;;3.60;99.90;;;;;;4995340;28;20213;-86
2024/01/30 03:47:20;;;;;;;6.45;5.70;;;3.50;99.90;;;;;;5017555;28;20186;-86
2024/01/30 03:49:46;;;;;;;7.60;5.90;;;3.80;99.90;;;;;;4983661;28;20635;-86
2024/01/30 03:52:12;;;;;;;7.63;6.17;;;3.70;99.90;;;;;;4997246;28;20445;-86
2024/01/30 03:54:37;;;;;;;5.47;4.97;;;4.10;99.90;;;;;;5037842;23;20527;-90
2024/01/30 03:57:03;;;;;;;5.67;5.17;;;3.70;99.90;;;;;;5033783;28;20188;-90
2024/01/30 03:59:29;;;;;;;6.63;5.93;;;3.70;99.90;;;;;;5030029;28;20195;-90
2024/01/30 04:01:54;;;;;;;6.20;5.60;;;3.90;99.90;;;;;;5034693;28;20485;-90
2024/01/30 04:04:20;;;;;;;6.80;6.10;;;3.70;99.90;;;;;;5033627;28;20187;-90
2024/01/30 04:06:46;;;;;;;6.03;5.43;;;4.20;99.90;;;;;;5043325;28;20285;-89
2024/01/30 04:09:13;;;;;;;7.67;5.67;;;3.70;99.90;;;;;;5045868;28;20183;-88
2024/01/30 04:11:39;;;;;;;7.32;5.65;;;4.20;99.90;;;;;;5033702;28;20443;-89
2024/01/30 04:14:05;;;;;;;6.32;5.72;;;4.00;99.90;;;;;;5029448;28;20184;-90
2024/01/30 04:16:30;;;;;;;7.57;5.73;;;3.20;99.90;;;;;;5033554;28;20618;-89
2024/01/30 04:18:56;;;;;;;7.43;6.63;;;3.80;99.90;;;;;;5033122;28;21011;-89
2024/01/30 04:21:22;;;;;;;6.67;6.07;;;3.30;99.90;;;;;;5035522;28;20207;-89
2024/01/30 04:23:48;;;;;;;8.07;6.00;;;3.70;99.90;;;;;;5035764;28;20179;-90
2024/01/30 04:26:14;;;;;;;7.72;6.07;;;4.20;99.90;;;;;;5035244;28;20664;-90
2024/01/30 04:28:41;;;;;;;7.13;6.30;;;3.70;99.90;;;;;;5036071;28;20242;-90
2024/01/30 04:31:07;;;;;;;9.13;6.70;;;3.70;99.90;;;;;;5033908;28;20601;-90
2024/01/30 04:33:33;;;;;;;7.00;5.83;;;3.80;99.90;;;;;;5033621;28;20298;-90
2024/01/30 04:35:58;;;;;;;7.30;6.20;;;4.20;99.90;;;;;;5036636;28;20210;-90
2024/01/30 04:38:24;;;;;;;7.10;6.40;;;3.80;99.90;;;;;;5031520;28;20261;-89
2024/01/30 04:40:49;;;;;;;7.73;7.00;;;3.90;99.90;;;;;;5023561;28;20216;-90
2024/01/30 04:43:15;;;;;;;7.90;6.33;;;3.90;99.90;;;;;;5037672;28;20286;-90
2024/01/30 04:45:41;;;;;;;8.52;6.45;;;3.60;99.90;;;;;;5036638;28;20207;-90
2024/01/30 04:48:07;;;;;;;7.40;6.40;;;3.40;99.90;;;;;;5039460;28;20606;-91
2024/01/30 04:50:32;;;;;;;7.30;6.60;;;3.80;99.90;;;;;;5037264;28;20510;-90
2024/01/30 04:52:58;;;;;;;8.67;6.67;;;3.50;99.90;;;;;;5038957;28;20445;-90
2024/01/30 04:55:24;;;;;;;7.67;6.87;;;3.60;99.90;;;;;;5038979;28;20290;-90
2024/01/30 04:57:49;;;;;;;11.93;7.30;;;3.80;99.90;;;;;;5042878;28;20559;-90
2024/01/30 05:00:15;;;;;;;7.83;6.83;;;3.80;99.90;;;;;;5045311;28;20184;-91
2024/01/30 05:02:41;;;;;;;7.43;6.68;;;3.70;99.90;;;;;;5041523;28;20604;-90
2024/01/30 05:05:07;;;;;;;8.80;7.60;;;3.70;99.90;;;;;;5042924;28;20228;-91
2024/01/30 05:07:34;;;;;;;9.85;6.45;;;3.70;99.90;;;;;;5050394;28;20184;-90
2024/01/30 05:09:59;;;;;;;8.60;7.10;;;4.00;99.90;;;;;;5045182;28;20182;-90
2024/01/30 05:12:25;;;;;;;8.13;7.10;;;3.60;99.90;;;;;;5051474;28;20213;-90
2024/01/30 05:14:51;;;;;;;7.37;6.30;;;3.90;99.90;;;;;;5043795;28;20214;-89
2024/01/30 05:17:16;;;;;;;7.43;6.73;;;4.00;99.90;;;;;;5052441;28;20194;-89
2024/01/30 05:19:43;;;;;;;10.10;6.73;;;3.60;99.90;;;;;;5040998;28;20190;-90
2024/01/30 05:22:09;;;;;;;8.07;6.75;;;3.70;99.90;;;;;;5036336;28;20204;-90
2024/01/30 05:24:36;;;;;;;7.10;6.30;;;3.60;99.90;;;;;;5041364;28;20299;-90
2024/01/30 05:27:02;;;;;;;8.35;6.45;;;3.60;99.90;;;;;;5043866;28;20187;-91
2024/01/30 05:29:27;;;;;;;9.43;7.13;;;3.70;99.90;;;;;;5041696;28;20649;-90
2024/01/30 05:31:53;;;;;;;7.93;7.13;;;3.30;99.90;;;;;;5037727;28;20179;-90
2024/01/30 05:34:18;;;;;;;8.60;6.50;;;3.50;99.90;;;;;;5045756;28;20218;-89
2024/01/30 05:36:44;;;;;;;8.73;6.40;;;3.50;99.90;;;;;;5049410;28;20247;-89
2024/01/30 05:39:10;;;;;;;7.47;6.70;;;3.70;99.90;;;;;;5045359;28;20207;-91
2024/01/30 05:41:36;;;;;;;8.70;7.53;;;4.30;99.90;;;;;;5069409;28;20204;-90
2024/01/30 05:44:01;;;;;;;9.93;7.67;;;3.90;99.90;;;;;;5048550;28;20234;-90
2024/01/30 05:46:27;;;;;;;7.23;6.53;;;3.70;99.90;;;;;;5051314;28;20232;-89
2024/01/30 05:48:52;;;;;;;9.33;6.90;;;3.60;99.90;;;;;;5051644;28;20265;-89
2024/01/30 05:51:18;;;;;;;7.20;6.23;;;3.90;99.90;;;;;;5049127;28;20254;-89
2024/01/30 05:53:43;;;;;;;7.33;6.40;;;3.80;99.90;;;;;;5035465;28;20199;-90
2024/01/30 05:56:09;;;;;;;9.50;7.30;;;4.20;99.90;;;;;;5039043;28;20261;-89
2024/01/30 05:58:35;;;;;;;10.83;7.63;;;3.70;99.90;;;;;;5038196;28;20191;-89
2024/01/30 06:01:00;;;;;;;8.10;7.30;;;3.60;99.90;;;;;;5042236;28;20207;-89
2024/01/30 06:03:26;;;;;;;8.43;7.60;;;3.80;99.90;;;;;;5039613;28;20543;-89
2024/01/30 06:05:51;;;;;;;7.17;6.47;;;4.00;99.90;;;;;;5035225;28;20292;-90
2024/01/30 06:08:17;;;;;;;12.60;7.80;;;3.60;99.90;;;;;;5036869;28;20235;-90
2024/01/30 06:10:43;;;;;;;9.75;6.95;;;3.00;99.90;;;;;;5037587;28;20192;-90
2024/01/30 06:13:08;;;;;;;10.57;7.70;;;3.60;99.90;;;;;;5035409;28;20185;-90
2024/01/30 06:15:34;;;;;;;10.03;7.10;;;3.40;99.90;;;;;;5029689;28;20575;-90
2024/01/30 06:18:00;;;;;;;11.27;9.03;;;;;;;;;;5036311;28;20182;-90
2024/01/30 06:20:25;;;;;;;9.05;7.57;;;3.60;99.90;;;;;;5033690;28;20712;-91
2024/01/30 06:22:51;;;;;;;8.23;7.40;;;;;;;;;;5030646;28;20295;-90
2024/01/30 06:25:17;;;;;;;8.83;7.63;;;;;;;;;;5040650;28;20199;-90
2024/01/30 06:27:44;;;;;;;9.07;7.97;;;;;;;;;;5040959;28;20433;-91
2024/01/30 06:30:10;;;;;;;9.70;8.00;;;3.50;99.90;;;;;;5038555;28;20274;-90
2024/01/30 06:32:36;;;;;;;9.77;8.65;;;3.60;99.90;;;;;;5022827;28;20278;-89
2024/01/30 06:35:02;;;;;;;8.53;7.63;;;3.10;99.90;;;;;;5036858;28;20228;-90
2024/01/30 06:37:27;;;;;;;8.10;7.22;;;3.70;99.90;;;;;;5036567;28;20546;-90
2024/01/30 06:39:53;;;;;;;11.50;7.47;;;3.90;99.90;;;;;;5035184;28;20196;-90
2024/01/30 06:42:19;;;;;;;9.77;8.30;;;3.80;99.90;;;;;;5044401;28;20364;-90
2024/01/30 06:44:44;;;;;;;8.17;7.37;;;3.90;99.90;;;;;;5042414;28;20207;-90
2024/01/30 06:47:10;;;;;;;9.77;7.70;;;3.60;99.90;;;;;;5036633;28;20445;-91
2024/01/30 06:49:39;;;;;;;7.93;6.70;;;3.60;99.90;;;;;;5038621;28;20191;-90
2024/01/30 06:52:06;;;;;;;13.55;10.93;;;3.80;99.90;;;;;;5038267;28;20439;-89
2024/01/30 06:54:32;;;;;;;8.30;7.40;;;3.10;99.90;;;;;;5029706;28;20237;-84
2024/01/30 06:56:58;;;;;;;8.35;7.47;;;4.10;99.90;;;;;;5028752;28;20567;-89
2024/01/30 06:59:24;;;;;;;7.87;7.07;;;3.60;99.90;;;;;;5028019;28;20188;-86
2024/01/30 07:01:49;;;;;;;9.40;7.10;;;3.90;99.90;;;;;;5034403;28;20463;-86
2024/01/30 07:04:15;;;;;;;8.77;7.87;;;3.80;99.90;;;;;;5034121;28;20180;-85
2024/01/30 07:06:41;;;;;;;10.70;7.82;;;3.70;99.90;;;;;;5039762;28;20244;-87
2024/01/30 07:09:07;;;;;;;11.50;9.30;;;3.70;99.90;;;;;;5036874;28;20187;-85
2024/01/30 07:11:32;;;;;;;8.83;7.80;;;3.90;99.90;;;;;;5036356;28;20190;-86
2024/01/30 07:13:58;;;;;;;10.03;7.50;;;3.50;99.90;;;;;;5037570;28;20875;-84
2024/01/30 07:16:24;;;;;;;8.70;7.83;;;3.30;99.90;;;;;;5041898;28;20206;-85
2024/01/30 07:18:49;;;;;;;9.20;7.10;;;3.60;99.90;;;;;;5039758;28;20999;-85
2024/01/30 07:21:15;;;;;;;9.77;8.77;;;3.60;99.90;;;;;;5038400;28;20215;-86
2024/01/30 07:23:41;;;;;;;15.93;10.63;;;4.20;99.90;;;;;;5036630;28;20454;-85
2024/01/30 07:26:08;;;;;;;8.85;7.30;;;3.70;99.90;;;;;;5047216;23;20264;-84
2024/01/30 07:28:34;;;;;;;7.30;6.60;;;3.60;99.90;;;;;;5044109;28;20192;-85
2024/01/30 07:31:00;;;;;;;10.90;8.57;;;3.70;99.90;;;;;;5043232;28;20247;-85
2024/01/30 07:33:25;;;;;;;9.85;8.40;;;3.90;99.90;;;;;;5034915;28;20518;-88
2024/01/30 07:35:53;;;;;;;9.17;7.97;;;3.70;99.90;;;;;;5049875;28;20208;-88
2024/01/30 07:38:18;;;;;;;8.65;7.75;;;4.10;99.90;;;;;;5049506;28;20237;-88
2024/01/30 07:40:44;;;;;;;7.53;6.93;;;3.90;99.90;;;;;;5051843;28;20540;-88
2024/01/30 07:43:10;;;;;;;10.43;8.30;;;4.00;99.90;;;;;;5054662;28;20590;-85
2024/01/30 07:45:35;;;;;;;8.40;7.60;;;4.10;99.90;;;;;;5046429;28;20920;-85
2024/01/30 07:48:02;;;;;;;9.43;7.93;;;4.00;99.90;;;;;;5045920;28;20449;-88
2024/01/30 07:50:28;;;;;;;9.82;7.43;;;4.10;99.90;;;;;;5051077;28;20223;-86
2024/01/30 07:52:55;;;;;;;8.73;7.83;;;4.30;99.90;;;;;;5051201;28;20231;-87
2024/01/30 07:55:27;;;;;;;8.73;7.20;;;4.80;99.90;;;;;;5062704;28;20208;-87
2024/01/30 07:57:53;;;;;;;14.18;8.20;;;4.50;99.90;;;;;;5048738;28;20196;-86
2024/01/30 08:00:21;;;;;;;9.80;8.00;;;4.90;99.90;;;;;;5052564;28;20187;-91
2024/01/30 08:02:46;;;;;;;9.20;8.18;;;4.40;99.90;;;;;;5057704;28;20210;-90
2024/01/30 08:05:14;;;;;;;10.93;7.90;;;4.40;99.90;;;;;;5051983;28;20290;-91
2024/01/30 08:07:54;;;;;;;9.38;7.75;;;5.00;99.90;;;;;;5074379;28;20259;-91
2024/01/30 08:10:20;;;;;;;8.20;7.10;;;4.70;99.90;;;;;;5053063;28;20211;-90
2024/01/30 08:12:45;;;;;;;10.23;8.38;;;4.60;99.90;;;;;;5053721;28;20652;-90
2024/01/30 08:15:14;;;;;;;11.30;8.07;;;4.40;99.90;;;;;;5049546;28;20298;-87
2024/01/30 08:17:40;;;;;;;8.48;6.78;;;4.80;99.90;;;;;;5049624;28;20195;-87
2024/01/30 08:20:08;;;;;;;9.20;7.20;;;5.40;99.90;;;;;;5053369;28;20193;-86
2024/01/30 08:22:33;;;;;;;8.27;6.97;;;5.30;99.90;;;;;;5066923;28;20224;-86
2024/01/30 08:24:59;;;;;;;8.60;7.27;;;5.90;99.90;;;;;;5057774;28;20216;-86
2024/01/30 08:27:24;;;;;;;9.50;8.20;;;5.80;99.90;;;;;;5059487;28;20195;-86
2024/01/30 08:29:50;;;;;;;9.20;8.17;;;5.40;99.90;;;;;;5058186;28;20185;-86
2024/01/30 08:32:16;;;;;;;9.10;8.03;;;6.10;99.90;;;;;;5059783;28;20220;-86
2024/01/30 08:34:41;;;;;;;8.47;7.53;;;6.10;99.90;;;;;;5054365;28;20247;-86
2024/01/30 08:37:07;;;;;;;9.47;8.47;;;6.30;99.90;;;;;;5059509;28;20280;-86
2024/01/30 08:39:32;;;;;;;9.40;7.87;;;6.50;99.90;;;;;;5058450;28;22286;-90
2024/01/30 08:41:58;;;;;;;10.30;7.90;;;6.90;99.90;;;;;;5072032;28;20255;-89
2024/01/30 08:44:23;;;;;;;8.67;7.77;;;6.80;99.90;;;;;;5053945;28;20182;-88
2024/01/30 08:46:50;;;;;;;9.10;7.37;;;7.20;99.90;;;;;;5054153;28;20846;-91
2024/01/30 08:49:16;;;;;;;9.88;8.70;;;7.30;99.90;;;;;;5049463;28;20236;-89
2024/01/30 08:51:42;;;;;;;8.85;8.05;;;7.20;99.90;;;;;;5047254;28;20232;-89
2024/01/30 08:54:07;;;;;;;9.27;8.30;;;7.60;99.90;;;;;;5048923;28;20657;-88
2024/01/30 08:56:33;;;;;;;10.60;8.40;;;8.00;99.90;;;;;;5049338;28;20213;-89
2024/01/30 08:58:59;;;;;;;14.00;9.07;;;7.30;99.90;;;;;;5045153;28;20257;-89
2024/01/30 09:01:25;;;;;;;12.70;8.07;;;7.60;99.90;;;;;;5048781;28;20598;-86
2024/01/30 09:03:51;;;;;;;8.85;7.55;;;8.10;99.90;;;;;;5049336;28;20193;-88
2024/01/30 09:06:16;;;;;;;10.20;8.60;;;8.40;99.90;;;;;;5052586;28;20205;-87
2024/01/30 09:08:42;;;;;;;9.53;8.17;;;9.00;99.90;;;;;;5053105;28;20185;-88
2024/01/30 09:11:15;;;;;;;11.50;10.30;;;8.60;99.90;;;;;;5052504;28;20201;-89
2024/01/30 09:13:41;;;;;;;11.40;9.75;;;8.50;99.90;;;;;;5054019;28;20221;-87
2024/01/30 09:16:07;;;;;;;16.58;12.55;;;9.10;99.90;;;;;;5048206;28;20213;-87
2024/01/30 09:18:33;;;;;;;10.63;9.52;;;9.70;99.90;;;;;;5047425;28;20234;-88
2024/01/30 09:20:59;;;;;;;13.20;9.40;;;9.30;99.80;;;;;;5051848;28;20758;-88
2024/01/30 09:23:25;;;;;;;10.32;8.63;;;9.90;99.00;;;;;;5048796;28;20203;-89
2024/01/30 09:25:50;;;;;;;10.17;9.10;;;11.60;97.40;;;;;;5051428;28;20241;-86
2024/01/30 09:28:17;;;;;;;10.73;9.60;;;11.20;94.40;;;;;;5055504;28;20209;-88
2024/01/30 09:30:43;;;;;;;11.48;10.00;;;11.60;93.10;;;;;;5062373;28;20177;-89
2024/01/30 09:33:08;;;;;;;10.83;9.40;;;11.60;93.30;;;;;;5073080;28;20192;-90
2024/01/30 09:35:34;;;;;;;12.57;10.97;;;11.70;93.50;;;;;;5076350;28;20204;-90
2024/01/30 09:37:59;;;;;;;12.30;10.20;;;11.70;92.80;;;;;;5076606;28;20215;-91
2024/01/30 09:40:25;;;;;;;13.87;11.37;;;11.90;92.70;;;;;;5063767;28;20256;-88
2024/01/30 09:42:51;;;;;;;19.00;10.30;;;11.80;92.40;;;;;;5052577;28;20220;-89
2024/01/30 09:45:23;;;;;;;9.83;8.73;;;12.00;92.00;;;;;;5048064;28;20212;-86
2024/01/30 09:47:49;;;;;;;10.90;9.77;;;12.00;92.30;;;;;;5049794;28;20478;-87
2024/01/30 09:50:15;;;;;;;11.40;10.30;;;12.10;92.60;;;;;;5053840;28;20826;-86
2024/01/30 09:55:26;;;;;;;11.30;10.20;;;12.00;92.30;;;;;;5069947;26;20221;-86
2024/01/30 09:57:51;;;;;;;10.65;9.65;;;11.90;91.50;;;;;;5042458;28;20216;-82
2024/01/30 10:00:17;;;;;;;13.63;9.70;;;12.00;91.50;;;;;;5059141;28;20182;-83
2024/01/30 10:03:04;;;;;;;10.73;9.73;;;12.20;91.30;;;;;;5035835;28;20554;-83
2024/01/30 10:05:33;;;;;;;11.23;9.55;;;12.20;90.90;;;;;;5035574;28;21287;-83
2024/01/30 10:07:59;;;;;;;13.98;10.95;;;13.30;91.30;;;;;;5035804;28;20185;-83
2024/01/30 10:10:25;;;;;;;11.30;9.90;;;12.90;90.30;;;;;;5037658;28;20193;-83
2024/01/30 10:12:50;;;;;;;13.00;10.50;;;13.00;89.50;;;;;;5017789;28;20201;-84
2024/01/30 10:15:18;;;;;;;10.70;9.70;;;13.40;90.00;;;;;;5041896;28;20468;-82
2024/01/30 10:17:45;;;;;;;10.90;9.90;;;12.90;90.50;;;;;;5038368;28;20193;-83
2024/01/30 10:20:11;;;;;;;11.27;10.18;;;13.50;90.20;;;;;;5039032;28;20193;-83
2024/01/30 10:22:36;;;;;;;14.05;10.77;;;13.20;89.40;;;;;;5032827;28;20212;-84
2024/01/30 10:25:02;;;;;;;11.63;10.53;;;13.40;89.70;;;;;;5038131;28;20681;-90
2024/01/30 10:27:29;;;;;;;14.13;10.20;;;13.30;88.90;;;;;;5040236;28;20862;-86
2024/01/30 10:29:56;;;;;;;11.85;10.65;;;13.50;89.30;;;;;;5036611;28;20520;-85
2024/01/30 10:32:22;;;;;;;12.73;11.52;;;13.10;88.50;;;;;;5037288;28;20211;-84
2024/01/30 10:34:47;;;;;;;13.80;11.10;;;13.20;88.20;;;;;;5039512;28;20201;-86
2024/01/30 10:37:16;;;;;;;14.17;10.83;;;13.20;89.30;;;;;;5051702;28;20275;-86
2024/01/30 10:39:44;;;;;;;17.48;11.40;;;12.80;89.80;;;;;;5051811;28;20258;-86
2024/01/30 10:42:14;;;;;;;13.90;11.10;;;13.00;89.60;;;;;;5054000;28;20327;-86
2024/01/30 10:45:08;;;;;;;12.50;11.20;;;13.30;90.00;;;;;;5032924;28;20202;-85
2024/01/30 10:47:36;;;;;;;11.82;10.63;;;13.20;89.10;;;;;;5050195;28;20612;-87
2024/01/30 10:50:03;;;;;;;11.82;10.52;;;13.40;89.10;;;;;;5038626;28;20181;-85
2024/01/30 10:52:29;;;;;;;11.43;10.35;;;12.80;88.60;;;;;;5020190;28;20636;-85
2024/01/30 10:54:56;;;;;;;12.40;11.23;;;13.00;89.70;;;;;;5025325;28;20530;-84
2024/01/30 10:57:26;;;;;;;12.38;11.05;;;12.40;89.10;;;;;;5057237;28;20253;-85
2024/01/30 10:59:57;;;;;;;12.98;11.68;;;12.70;89.60;;;;;;5048365;28;20234;-85
2024/01/30 11:02:24;;;;;;;16.35;10.98;;;13.30;89.50;;;;;;5040354;28;20256;-84
2024/01/30 11:04:50;;;;;;;17.52;15.55;;;12.80;88.90;;;;;;5037539;28;20986;-85
2024/01/30 11:07:24;;;;;;;12.40;11.07;;;13.40;89.40;;;;;;5035708;28;20606;-85
2024/01/30 11:10:04;;;;;;;13.13;11.82;;;13.10;88.80;;;;;;5033627;28;20212;-85
2024/01/30 11:12:34;;;;;;;14.95;11.30;;;12.40;88.10;;;;;;5022072;28;20209;-86
2024/01/30 11:15:14;;;;;;;14.68;12.05;;;13.60;89.50;;;;;;5039028;28;20241;-85
2024/01/30 11:17:52;;;;;;;13.68;12.25;;;13.50;88.70;;;;;;5036430;28;20178;-84
2024/01/30 11:20:31;;;;;;;15.15;11.80;;;12.90;87.00;;;;;;5024991;28;20522;-85
2024/01/30 11:22:57;;;;;;;15.27;11.90;;;14.50;89.00;;;;;;5036822;28;20227;-85
2024/01/30 11:25:25;;;;;;;12.43;11.10;;;13.20;88.50;;;;;;5034658;28;20697;-84
2024/01/30 11:27:53;;;;;;;15.68;10.70;;;13.10;88.40;;;;;;5056979;28;20189;-84
2024/01/30 11:30:26;;;;;;;12.48;11.15;;;13.00;88.00;;;;;;5041188;28;20588;-85
2024/01/30 11:33:05;;;;;;;14.18;11.30;;;13.10;88.80;;;;;;5067283;28;20189;-84
2024/01/30 11:35:35;;;;;;;13.30;11.90;;;12.90;89.20;;;;;;5062448;28;20241;-85
2024/01/30 11:38:04;;;;;;;14.40;11.57;;;13.60;89.50;;;;;;5052295;28;20186;-85
2024/01/30 11:40:31;;;;;;;14.68;13.05;;;13.10;88.70;;;;;;5056179;28;20209;-86
2024/01/30 11:42:59;;;;;;;18.08;16.17;;;13.60;89.30;;;;;;5020356;28;20687;-85
2024/01/30 11:45:27;;;;;;;15.80;14.18;;;13.00;88.80;;;;;;5053209;28;20259;-85
2024/01/30 11:47:54;;;;;;;13.43;12.02;;;13.00;88.80;;;;;;5015711;28;20201;-85
2024/01/30 11:50:20;;;;;;;13.80;12.32;;;12.80;88.90;;;;;;5042015;28;20217;-86
2024/01/30 11:52:47;;;;;;;12.00;10.83;;;13.00;89.30;;;;;;5033037;28;20255;-87
2024/01/30 11:55:14;;;;;;;12.73;11.20;;;12.90;89.10;;;;;;5029517;28;21054;-87
2024/01/30 11:57:39;;;;;;;12.55;10.63;;;13.40;89.90;;;;;;5046512;28;20188;-87
2024/01/30 12:00:10;;;;;;;13.83;11.60;;;13.70;90.00;;;;;;5048704;28;20189;-88
2024/01/30 12:02:59;;;;;;;12.63;11.32;;;13.00;89.50;;;;;;5042255;28;20201;-87
2024/01/30 12:05:26;;;;;;;15.60;12.93;;;13.40;89.60;;;;;;5034565;28;20686;-86
2024/01/30 12:07:52;;;;;;;15.00;12.93;;;12.70;88.40;;;;;;5029591;28;20182;-88
2024/01/30 12:10:18;;;;;;;21.07;11.53;;;13.10;89.00;;;;;;5034179;28;20272;-90
2024/01/30 12:12:49;;;;;;;13.68;10.68;;;13.20;89.40;;;;;;5031217;28;20440;-88
2024/01/30 12:15:16;;;;;;;13.18;11.68;;;13.00;89.20;;;;;;5038823;28;20216;-87
2024/01/30 12:17:42;;;;;;;15.25;12.63;;;13.10;89.30;;;;;;5032337;28;20188;-87
2024/01/30 12:20:12;;;;;;;13.73;12.15;;;14.80;90.60;;;;;;5030763;28;20746;-87
2024/01/30 12:22:42;;;;;;;15.82;12.18;;;13.30;89.40;;;;;;5032430;28;20193;-86
2024/01/30 12:25:09;;;;;;;13.35;11.50;;;13.60;89.80;;;;;;5028782;28;20209;-87
2024/01/30 12:27:35;;;;;;;15.75;11.05;;;13.50;89.00;;;;;;5031077;28;20181;-88
2024/01/30 12:30:01;;;;;;;17.83;12.00;;;13.60;88.10;;;;;;5029976;28;20565;-88
2024/01/30 12:32:27;;;;;;;11.80;10.70;;;13.30;88.50;;;;;;5052041;28;20197;-89
2024/01/30 12:34:57;;;;;;;13.35;11.65;;;13.40;88.80;;;;;;5024960;28;20209;-87
2024/01/30 12:37:24;;;;;;;11.98;10.68;;;13.90;89.80;;;;;;5031515;28;20181;-89
2024/01/30 12:39:53;;;;;;;13.10;11.27;;;14.20;89.10;;;;;;5049607;28;20365;-85
2024/01/30 12:42:21;;;;;;;13.70;10.23;;;14.80;89.70;;;;;;5030549;28;20223;-86
2024/01/30 12:44:46;;;;;;;13.52;12.23;;;13.70;88.30;;;;;;5035234;28;20567;-82
2024/01/30 12:47:12;;;;;;;13.30;10.77;;;13.60;88.10;;;;;;5040485;28;20186;-83
2024/01/30 12:49:37;;;;;;;15.43;11.17;;;14.00;88.70;;;;;;5032773;28;20759;-83